sensor_id;sensor_type;location;lat;lon;timestamp;P1;durP1;ratioP1;P2;durP2;ratioP2
1759;SDS011;877;46.266;20.062;2024-03-29T00:01:52;3.13;;;1.10;;
1759;SDS011;877;46.266;20.062;2024-03-29T00:04:18;4.10;;;1.20;;
1759;SDS011;877;46.266;20.062;2024-03-29T00:06:43;2.90;;;1.03;;
1759;SDS011;877;46.266;20.062;2024-03-29T00:09:09;2.97;;;1.17;;
1759;SDS011;877;46.266;20.062;2024-03-29T00:11:35;2.60;;;1.20;;
1759;SDS011;877;46.266;20.062;2024-03-29T00:14:00;3.10;;;1.70;;
1759;SDS011;877;46.266;20.062;2024-03-29T00:16:26;2.90;;;1.40;;
1759;SDS011;877;46.266;20.062;2024-03-29T00:18:52;3.80;;;1.83;;
1759;SDS011;877;46.266;20.062;2024-03-29T00:21:18;2.78;;;1.17;;
1759;SDS011;877;46.266;20.062;2024-03-29T00:23:44;3.13;;;1.50;;
1759;SDS011;877;46.266;20.062;2024-03-29T00:26:10;3.60;;;1.42;;
1759;SDS011;877;46.266;20.062;2024-03-29T00:28:36;3.95;;;1.10;;
1759;SDS011;877;46.266;20.062;2024-03-29T00:31:03;6.63;;;1.30;;
1759;SDS011;877;46.266;20.062;2024-03-29T00:33:29;3.15;;;1.40;;
1759;SDS011;877;46.266;20.062;2024-03-29T00:35:55;3.70;;;1.63;;
1759;SDS011;877;46.266;20.062;2024-03-29T00:38:21;5.45;;;1.70;;
1759;SDS011;877;46.266;20.062;2024-03-29T00:40:47;4.20;;;1.70;;
1759;SDS011;877;46.266;20.062;2024-03-29T00:43:13;4.80;;;2.00;;
1759;SDS011;877;46.266;20.062;2024-03-29T00:45:38;4.80;;;1.67;;
1759;SDS011;877;46.266;20.062;2024-03-29T00:48:05;4.53;;;1.60;;
1759;SDS011;877;46.266;20.062;2024-03-29T00:50:31;3.80;;;1.60;;
1759;SDS011;877;46.266;20.062;2024-03-29T00:52:56;2.90;;;1.43;;
1759;SDS011;877;46.266;20.062;2024-03-29T00:55:22;2.70;;;1.40;;
1759;SDS011;877;46.266;20.062;2024-03-29T00:57:47;6.00;;;1.33;;
1759;SDS011;877;46.266;20.062;2024-03-29T01:00:13;3.40;;;1.53;;
1759;SDS011;877;46.266;20.062;2024-03-29T01:02:39;2.65;;;1.23;;
1759;SDS011;877;46.266;20.062;2024-03-29T01:05:05;2.70;;;1.17;;
1759;SDS011;877;46.266;20.062;2024-03-29T01:07:32;3.72;;;1.25;;
1759;SDS011;877;46.266;20.062;2024-03-29T01:09:58;3.13;;;1.33;;
1759;SDS011;877;46.266;20.062;2024-03-29T01:12:23;3.03;;;1.37;;
1759;SDS011;877;46.266;20.062;2024-03-29T01:14:49;3.90;;;1.30;;
1759;SDS011;877;46.266;20.062;2024-03-29T01:17:16;3.10;;;1.25;;
1759;SDS011;877;46.266;20.062;2024-03-29T01:19:41;3.90;;;1.50;;
1759;SDS011;877;46.266;20.062;2024-03-29T01:22:07;3.13;;;0.90;;
1759;SDS011;877;46.266;20.062;2024-03-29T01:24:33;2.97;;;1.00;;
1759;SDS011;877;46.266;20.062;2024-03-29T01:26:59;3.47;;;1.37;;
1759;SDS011;877;46.266;20.062;2024-03-29T01:29:25;3.63;;;1.37;;
1759;SDS011;877;46.266;20.062;2024-03-29T01:31:51;3.33;;;1.20;;
1759;SDS011;877;46.266;20.062;2024-03-29T01:34:16;6.60;;;1.30;;
1759;SDS011;877;46.266;20.062;2024-03-29T01:36:42;3.73;;;1.53;;
1759;SDS011;877;46.266;20.062;2024-03-29T01:39:08;2.92;;;1.20;;
1759;SDS011;877;46.266;20.062;2024-03-29T01:41:39;3.03;;;1.20;;
1759;SDS011;877;46.266;20.062;2024-03-29T01:44:05;3.80;;;1.20;;
1759;SDS011;877;46.266;20.062;2024-03-29T01:46:30;3.27;;;1.20;;
1759;SDS011;877;46.266;20.062;2024-03-29T01:49:00;2.83;;;1.00;;
1759;SDS011;877;46.266;20.062;2024-03-29T01:51:27;4.53;;;1.30;;
1759;SDS011;877;46.266;20.062;2024-03-29T01:53:53;2.93;;;1.00;;
1759;SDS011;877;46.266;20.062;2024-03-29T01:56:20;3.80;;;1.48;;
1759;SDS011;877;46.266;20.062;2024-03-29T01:58:48;3.70;;;1.17;;
1759;SDS011;877;46.266;20.062;2024-03-29T02:01:16;4.57;;;1.03;;
1759;SDS011;877;46.266;20.062;2024-03-29T02:03:43;4.30;;;1.37;;
1759;SDS011;877;46.266;20.062;2024-03-29T02:06:09;2.93;;;1.30;;
1759;SDS011;877;46.266;20.062;2024-03-29T02:08:35;2.95;;;1.10;;
1759;SDS011;877;46.266;20.062;2024-03-29T02:11:02;3.57;;;1.50;;
1759;SDS011;877;46.266;20.062;2024-03-29T02:13:29;3.58;;;1.35;;
1759;SDS011;877;46.266;20.062;2024-03-29T02:15:55;4.00;;;1.87;;
1759;SDS011;877;46.266;20.062;2024-03-29T02:18:20;4.27;;;1.80;;
1759;SDS011;877;46.266;20.062;2024-03-29T02:20:46;3.73;;;1.73;;
1759;SDS011;877;46.266;20.062;2024-03-29T02:23:16;4.22;;;1.67;;
1759;SDS011;877;46.266;20.062;2024-03-29T02:25:45;3.53;;;1.70;;
1759;SDS011;877;46.266;20.062;2024-03-29T02:28:14;7.75;;;3.85;;
1759;SDS011;877;46.266;20.062;2024-03-29T02:30:41;21.00;;;16.10;;
1759;SDS011;877;46.266;20.062;2024-03-29T02:33:07;19.70;;;16.83;;
1759;SDS011;877;46.266;20.062;2024-03-29T02:35:33;11.17;;;9.27;;
1759;SDS011;877;46.266;20.062;2024-03-29T02:37:58;6.77;;;3.80;;
1759;SDS011;877;46.266;20.062;2024-03-29T02:40:24;3.70;;;1.93;;
1759;SDS011;877;46.266;20.062;2024-03-29T02:42:51;2.90;;;1.43;;
1759;SDS011;877;46.266;20.062;2024-03-29T02:45:16;2.70;;;1.00;;
1759;SDS011;877;46.266;20.062;2024-03-29T02:47:42;3.40;;;1.50;;
1759;SDS011;877;46.266;20.062;2024-03-29T02:50:12;3.57;;;1.40;;
1759;SDS011;877;46.266;20.062;2024-03-29T02:52:39;8.73;;;2.80;;
1759;SDS011;877;46.266;20.062;2024-03-29T02:55:05;4.57;;;2.30;;
1759;SDS011;877;46.266;20.062;2024-03-29T02:57:30;5.77;;;1.43;;
1759;SDS011;877;46.266;20.062;2024-03-29T02:59:56;2.70;;;1.10;;
1759;SDS011;877;46.266;20.062;2024-03-29T03:02:22;2.70;;;1.03;;
1759;SDS011;877;46.266;20.062;2024-03-29T03:04:48;3.40;;;1.03;;
1759;SDS011;877;46.266;20.062;2024-03-29T03:07:14;3.30;;;1.40;;
1759;SDS011;877;46.266;20.062;2024-03-29T03:09:59;3.40;;;1.13;;
1759;SDS011;877;46.266;20.062;2024-03-29T03:12:44;3.53;;;1.20;;
1759;SDS011;877;46.266;20.062;2024-03-29T03:15:10;3.77;;;1.20;;
1759;SDS011;877;46.266;20.062;2024-03-29T03:17:37;7.13;;;1.30;;
1759;SDS011;877;46.266;20.062;2024-03-29T03:20:03;2.93;;;1.30;;
1759;SDS011;877;46.266;20.062;2024-03-29T03:22:34;3.47;;;1.37;;
1759;SDS011;877;46.266;20.062;2024-03-29T03:25:00;4.63;;;1.20;;
1759;SDS011;877;46.266;20.062;2024-03-29T03:27:25;2.80;;;1.20;;
1759;SDS011;877;46.266;20.062;2024-03-29T03:29:51;3.53;;;1.27;;
1759;SDS011;877;46.266;20.062;2024-03-29T03:32:16;2.57;;;1.00;;
1759;SDS011;877;46.266;20.062;2024-03-29T03:34:42;3.63;;;1.20;;
1759;SDS011;877;46.266;20.062;2024-03-29T03:37:08;5.10;;;1.07;;
1759;SDS011;877;46.266;20.062;2024-03-29T03:39:33;2.77;;;0.90;;
1759;SDS011;877;46.266;20.062;2024-03-29T03:41:59;2.80;;;1.10;;
1759;SDS011;877;46.266;20.062;2024-03-29T03:44:25;3.00;;;1.07;;
1759;SDS011;877;46.266;20.062;2024-03-29T03:46:51;2.60;;;0.83;;
1759;SDS011;877;46.266;20.062;2024-03-29T03:49:17;3.25;;;1.35;;
1759;SDS011;877;46.266;20.062;2024-03-29T03:51:42;2.93;;;1.07;;
1759;SDS011;877;46.266;20.062;2024-03-29T03:54:08;3.33;;;1.43;;
1759;SDS011;877;46.266;20.062;2024-03-29T03:56:34;3.00;;;1.30;;
1759;SDS011;877;46.266;20.062;2024-03-29T03:58:59;4.07;;;2.07;;
1759;SDS011;877;46.266;20.062;2024-03-29T04:01:25;4.50;;;1.77;;
1759;SDS011;877;46.266;20.062;2024-03-29T04:03:50;6.43;;;2.47;;
1759;SDS011;877;46.266;20.062;2024-03-29T04:06:16;5.00;;;2.50;;
1759;SDS011;877;46.266;20.062;2024-03-29T04:08:43;4.03;;;2.30;;
1759;SDS011;877;46.266;20.062;2024-03-29T04:11:10;5.27;;;2.70;;
1759;SDS011;877;46.266;20.062;2024-03-29T04:13:36;4.10;;;2.40;;
1759;SDS011;877;46.266;20.062;2024-03-29T04:16:04;5.10;;;2.80;;
1759;SDS011;877;46.266;20.062;2024-03-29T04:18:31;4.60;;;2.70;;
1759;SDS011;877;46.266;20.062;2024-03-29T04:20:58;5.13;;;2.93;;
1759;SDS011;877;46.266;20.062;2024-03-29T04:23:24;3.50;;;2.10;;
1759;SDS011;877;46.266;20.062;2024-03-29T04:25:54;3.45;;;2.00;;
1759;SDS011;877;46.266;20.062;2024-03-29T04:28:23;3.97;;;2.20;;
1759;SDS011;877;46.266;20.062;2024-03-29T04:33:19;5.40;;;2.03;;
1759;SDS011;877;46.266;20.062;2024-03-29T04:35:53;4.05;;;1.80;;
1759;SDS011;877;46.266;20.062;2024-03-29T04:38:20;4.20;;;2.05;;
1759;SDS011;877;46.266;20.062;2024-03-29T04:40:46;3.40;;;1.53;;
1759;SDS011;877;46.266;20.062;2024-03-29T04:43:13;3.85;;;1.88;;
1759;SDS011;877;46.266;20.062;2024-03-29T04:45:38;3.43;;;1.73;;
1759;SDS011;877;46.266;20.062;2024-03-29T04:48:04;8.13;;;4.20;;
1759;SDS011;877;46.266;20.062;2024-03-29T04:50:30;9.67;;;7.70;;
1759;SDS011;877;46.266;20.062;2024-03-29T04:52:56;12.00;;;10.37;;
1759;SDS011;877;46.266;20.062;2024-03-29T04:55:21;6.50;;;5.80;;
1759;SDS011;877;46.266;20.062;2024-03-29T04:57:48;10.53;;;6.00;;
1759;SDS011;877;46.266;20.062;2024-03-29T05:00:14;7.37;;;4.57;;
1759;SDS011;877;46.266;20.062;2024-03-29T05:02:40;5.00;;;3.10;;
1759;SDS011;877;46.266;20.062;2024-03-29T05:05:05;4.70;;;2.43;;
1759;SDS011;877;46.266;20.062;2024-03-29T05:07:32;4.93;;;2.37;;
1759;SDS011;877;46.266;20.062;2024-03-29T05:09:58;3.63;;;1.67;;
1759;SDS011;877;46.266;20.062;2024-03-29T05:12:25;5.53;;;1.77;;
1759;SDS011;877;46.266;20.062;2024-03-29T05:14:50;3.57;;;1.63;;
1759;SDS011;877;46.266;20.062;2024-03-29T05:17:16;3.50;;;1.67;;
1759;SDS011;877;46.266;20.062;2024-03-29T05:19:42;3.60;;;1.80;;
1759;SDS011;877;46.266;20.062;2024-03-29T05:22:08;3.60;;;1.70;;
1759;SDS011;877;46.266;20.062;2024-03-29T05:24:34;5.20;;;2.17;;
1759;SDS011;877;46.266;20.062;2024-03-29T05:26:59;3.50;;;1.90;;
1759;SDS011;877;46.266;20.062;2024-03-29T05:29:25;7.17;;;3.07;;
1759;SDS011;877;46.266;20.062;2024-03-29T05:31:51;7.53;;;3.93;;
1759;SDS011;877;46.266;20.062;2024-03-29T05:34:16;6.83;;;3.30;;
1759;SDS011;877;46.266;20.062;2024-03-29T05:36:42;5.27;;;2.87;;
1759;SDS011;877;46.266;20.062;2024-03-29T05:39:09;5.60;;;2.87;;
1759;SDS011;877;46.266;20.062;2024-03-29T05:41:35;4.80;;;2.70;;
1759;SDS011;877;46.266;20.062;2024-03-29T05:44:01;5.17;;;2.80;;
1759;SDS011;877;46.266;20.062;2024-03-29T05:46:28;4.30;;;2.20;;
1759;SDS011;877;46.266;20.062;2024-03-29T05:48:54;5.00;;;2.77;;
1759;SDS011;877;46.266;20.062;2024-03-29T05:51:20;6.20;;;2.37;;
1759;SDS011;877;46.266;20.062;2024-03-29T05:53:45;4.97;;;2.13;;
1759;SDS011;877;46.266;20.062;2024-03-29T05:56:11;3.67;;;1.83;;
1759;SDS011;877;46.266;20.062;2024-03-29T05:58:37;4.40;;;2.17;;
1759;SDS011;877;46.266;20.062;2024-03-29T06:01:02;4.63;;;1.77;;
1759;SDS011;877;46.266;20.062;2024-03-29T06:03:28;3.80;;;1.60;;
1759;SDS011;877;46.266;20.062;2024-03-29T06:05:55;3.80;;;2.27;;
1759;SDS011;877;46.266;20.062;2024-03-29T06:08:20;3.70;;;1.60;;
1759;SDS011;877;46.266;20.062;2024-03-29T06:10:48;3.30;;;1.57;;
1759;SDS011;877;46.266;20.062;2024-03-29T06:13:14;4.70;;;2.00;;
1759;SDS011;877;46.266;20.062;2024-03-29T06:15:54;5.30;;;2.17;;
1759;SDS011;877;46.266;20.062;2024-03-29T06:18:40;3.87;;;2.10;;
1759;SDS011;877;46.266;20.062;2024-03-29T06:21:06;3.60;;;1.80;;
1759;SDS011;877;46.266;20.062;2024-03-29T06:23:31;3.70;;;1.80;;
1759;SDS011;877;46.266;20.062;2024-03-29T06:25:57;5.13;;;1.37;;
1759;SDS011;877;46.266;20.062;2024-03-29T06:28:25;3.70;;;1.70;;
1759;SDS011;877;46.266;20.062;2024-03-29T06:30:51;4.20;;;1.20;;
1759;SDS011;877;46.266;20.062;2024-03-29T06:33:16;3.93;;;1.30;;
1759;SDS011;877;46.266;20.062;2024-03-29T06:35:42;2.40;;;0.77;;
1759;SDS011;877;46.266;20.062;2024-03-29T06:38:09;3.43;;;0.90;;
1759;SDS011;877;46.266;20.062;2024-03-29T06:40:35;2.67;;;1.03;;
1759;SDS011;877;46.266;20.062;2024-03-29T06:43:01;2.60;;;0.87;;
1759;SDS011;877;46.266;20.062;2024-03-29T06:45:27;3.90;;;1.20;;
1759;SDS011;877;46.266;20.062;2024-03-29T06:47:54;2.90;;;0.90;;
1759;SDS011;877;46.266;20.062;2024-03-29T06:50:20;2.40;;;0.70;;
1759;SDS011;877;46.266;20.062;2024-03-29T06:52:46;2.87;;;0.80;;
1759;SDS011;877;46.266;20.062;2024-03-29T06:55:11;2.60;;;0.77;;
1759;SDS011;877;46.266;20.062;2024-03-29T06:57:37;2.60;;;1.00;;
1759;SDS011;877;46.266;20.062;2024-03-29T07:00:03;5.80;;;1.00;;
1759;SDS011;877;46.266;20.062;2024-03-29T07:02:29;2.50;;;0.80;;
1759;SDS011;877;46.266;20.062;2024-03-29T07:04:55;3.50;;;0.90;;
1759;SDS011;877;46.266;20.062;2024-03-29T07:07:21;3.10;;;1.00;;
1759;SDS011;877;46.266;20.062;2024-03-29T07:09:47;3.40;;;1.07;;
1759;SDS011;877;46.266;20.062;2024-03-29T07:12:13;2.50;;;0.80;;
1759;SDS011;877;46.266;20.062;2024-03-29T07:14:39;2.70;;;0.80;;
1759;SDS011;877;46.266;20.062;2024-03-29T07:17:04;2.87;;;0.80;;
1759;SDS011;877;46.266;20.062;2024-03-29T07:19:30;2.70;;;0.90;;
1759;SDS011;877;46.266;20.062;2024-03-29T07:21:55;3.33;;;0.73;;
1759;SDS011;877;46.266;20.062;2024-03-29T07:24:21;4.30;;;0.90;;
1759;SDS011;877;46.266;20.062;2024-03-29T07:26:48;3.53;;;0.70;;
1759;SDS011;877;46.266;20.062;2024-03-29T07:29:14;3.60;;;0.80;;
1759;SDS011;877;46.266;20.062;2024-03-29T07:31:39;2.70;;;0.70;;
1759;SDS011;877;46.266;20.062;2024-03-29T07:34:05;2.47;;;0.70;;
1759;SDS011;877;46.266;20.062;2024-03-29T07:36:31;3.27;;;0.80;;
1759;SDS011;877;46.266;20.062;2024-03-29T07:39:00;3.70;;;0.60;;
1759;SDS011;877;46.266;20.062;2024-03-29T07:41:26;2.50;;;0.70;;
1759;SDS011;877;46.266;20.062;2024-03-29T07:43:53;2.40;;;0.70;;
1759;SDS011;877;46.266;20.062;2024-03-29T07:46:22;5.03;;;0.70;;
1759;SDS011;877;46.266;20.062;2024-03-29T07:48:49;2.30;;;0.60;;
1759;SDS011;877;46.266;20.062;2024-03-29T07:51:15;2.40;;;0.70;;
1759;SDS011;877;46.266;20.062;2024-03-29T07:53:41;8.73;;;2.00;;
1759;SDS011;877;46.266;20.062;2024-03-29T07:56:06;3.53;;;0.97;;
1759;SDS011;877;46.266;20.062;2024-03-29T07:58:32;2.63;;;0.90;;
1759;SDS011;877;46.266;20.062;2024-03-29T08:00:58;3.27;;;0.80;;
1759;SDS011;877;46.266;20.062;2024-03-29T08:03:23;2.50;;;0.80;;
1759;SDS011;877;46.266;20.062;2024-03-29T08:06:02;2.93;;;1.27;;
1759;SDS011;877;46.266;20.062;2024-03-29T08:08:32;2.57;;;0.80;;
1759;SDS011;877;46.266;20.062;2024-03-29T08:10:58;4.23;;;0.70;;
1759;SDS011;877;46.266;20.062;2024-03-29T08:13:25;2.40;;;0.67;;
1759;SDS011;877;46.266;20.062;2024-03-29T08:15:58;2.70;;;0.80;;
1759;SDS011;877;46.266;20.062;2024-03-29T08:18:25;2.40;;;0.70;;
1759;SDS011;877;46.266;20.062;2024-03-29T08:20:52;2.40;;;0.70;;
1759;SDS011;877;46.266;20.062;2024-03-29T08:23:20;2.30;;;0.67;;
1759;SDS011;877;46.266;20.062;2024-03-29T08:25:46;4.50;;;0.90;;
1759;SDS011;877;46.266;20.062;2024-03-29T08:28:11;2.67;;;0.63;;
1759;SDS011;877;46.266;20.062;2024-03-29T08:30:37;2.50;;;0.70;;
1759;SDS011;877;46.266;20.062;2024-03-29T08:33:03;3.70;;;0.70;;
1759;SDS011;877;46.266;20.062;2024-03-29T08:35:29;2.50;;;0.70;;
1759;SDS011;877;46.266;20.062;2024-03-29T08:37:56;2.60;;;0.77;;
1759;SDS011;877;46.266;20.062;2024-03-29T08:40:22;2.90;;;0.73;;
1759;SDS011;877;46.266;20.062;2024-03-29T08:42:49;3.30;;;0.60;;
1759;SDS011;877;46.266;20.062;2024-03-29T08:45:15;5.60;;;0.70;;
1759;SDS011;877;46.266;20.062;2024-03-29T08:47:41;2.40;;;0.67;;
1759;SDS011;877;46.266;20.062;2024-03-29T08:50:07;2.60;;;0.70;;
1759;SDS011;877;46.266;20.062;2024-03-29T08:52:33;2.30;;;0.60;;
1759;SDS011;877;46.266;20.062;2024-03-29T08:54:59;2.90;;;0.80;;
1759;SDS011;877;46.266;20.062;2024-03-29T08:57:25;2.20;;;0.60;;
1759;SDS011;877;46.266;20.062;2024-03-29T08:59:50;2.70;;;0.60;;
1759;SDS011;877;46.266;20.062;2024-03-29T09:02:16;3.47;;;0.90;;
1759;SDS011;877;46.266;20.062;2024-03-29T09:04:42;2.30;;;0.60;;
1759;SDS011;877;46.266;20.062;2024-03-29T09:07:08;2.60;;;0.80;;
1759;SDS011;877;46.266;20.062;2024-03-29T09:09:33;2.30;;;0.70;;
1759;SDS011;877;46.266;20.062;2024-03-29T09:11:59;2.30;;;0.70;;
1759;SDS011;877;46.266;20.062;2024-03-29T09:14:25;3.30;;;0.70;;
1759;SDS011;877;46.266;20.062;2024-03-29T09:16:52;2.77;;;0.97;;
1759;SDS011;877;46.266;20.062;2024-03-29T09:19:17;2.70;;;0.80;;
1759;SDS011;877;46.266;20.062;2024-03-29T09:21:43;2.70;;;0.77;;
1759;SDS011;877;46.266;20.062;2024-03-29T09:24:09;2.30;;;0.70;;
1759;SDS011;877;46.266;20.062;2024-03-29T09:26:35;2.80;;;0.80;;
1759;SDS011;877;46.266;20.062;2024-03-29T09:29:02;3.50;;;0.77;;
1759;SDS011;877;46.266;20.062;2024-03-29T09:31:27;3.13;;;0.70;;
1759;SDS011;877;46.266;20.062;2024-03-29T09:33:53;2.27;;;0.57;;
1759;SDS011;877;46.266;20.062;2024-03-29T09:36:22;3.83;;;0.80;;
1759;SDS011;877;46.266;20.062;2024-03-29T09:38:52;2.83;;;0.77;;
1759;SDS011;877;46.266;20.062;2024-03-29T09:41:18;3.37;;;0.90;;
1759;SDS011;877;46.266;20.062;2024-03-29T09:43:45;3.10;;;1.00;;
1759;SDS011;877;46.266;20.062;2024-03-29T09:46:12;2.80;;;0.83;;
1759;SDS011;877;46.266;20.062;2024-03-29T09:48:42;3.93;;;0.70;;
1759;SDS011;877;46.266;20.062;2024-03-29T09:51:11;2.97;;;1.10;;
1759;SDS011;877;46.266;20.062;2024-03-29T09:53:43;3.07;;;0.73;;
1759;SDS011;877;46.266;20.062;2024-03-29T09:56:09;2.50;;;0.70;;
1759;SDS011;877;46.266;20.062;2024-03-29T09:58:36;4.10;;;1.10;;
1759;SDS011;877;46.266;20.062;2024-03-29T10:01:03;3.97;;;1.20;;
1759;SDS011;877;46.266;20.062;2024-03-29T10:03:31;2.40;;;0.80;;
1759;SDS011;877;46.266;20.062;2024-03-29T10:06:00;3.77;;;1.00;;
1759;SDS011;877;46.266;20.062;2024-03-29T10:08:26;3.03;;;0.87;;
1759;SDS011;877;46.266;20.062;2024-03-29T10:10:54;2.87;;;1.00;;
1759;SDS011;877;46.266;20.062;2024-03-29T10:13:23;4.40;;;1.17;;
1759;SDS011;877;46.266;20.062;2024-03-29T10:15:53;3.37;;;1.20;;
1759;SDS011;877;46.266;20.062;2024-03-29T10:18:24;4.87;;;1.40;;
1759;SDS011;877;46.266;20.062;2024-03-29T10:23:27;4.47;;;1.20;;
1759;SDS011;877;46.266;20.062;2024-03-29T10:25:53;3.00;;;1.10;;
1759;SDS011;877;46.266;20.062;2024-03-29T10:28:19;6.40;;;1.40;;
1759;SDS011;877;46.266;20.062;2024-03-29T10:30:45;5.20;;;1.37;;
1759;SDS011;877;46.266;20.062;2024-03-29T10:33:12;4.13;;;1.80;;
1759;SDS011;877;46.266;20.062;2024-03-29T10:35:41;6.23;;;1.90;;
1759;SDS011;877;46.266;20.062;2024-03-29T10:38:08;4.53;;;1.10;;
1759;SDS011;877;46.266;20.062;2024-03-29T10:40:35;4.83;;;1.50;;
1759;SDS011;877;46.266;20.062;2024-03-29T10:43:03;4.57;;;1.33;;
1759;SDS011;877;46.266;20.062;2024-03-29T10:45:34;7.27;;;1.60;;
1759;SDS011;877;46.266;20.062;2024-03-29T10:48:02;4.43;;;1.73;;
1759;SDS011;877;46.266;20.062;2024-03-29T10:50:34;5.27;;;1.13;;
1759;SDS011;877;46.266;20.062;2024-03-29T10:53:00;5.17;;;1.60;;
1759;SDS011;877;46.266;20.062;2024-03-29T10:55:30;6.03;;;1.50;;
1759;SDS011;877;46.266;20.062;2024-03-29T10:57:58;3.60;;;1.50;;
1759;SDS011;877;46.266;20.062;2024-03-29T11:00:25;5.50;;;1.70;;
1759;SDS011;877;46.266;20.062;2024-03-29T11:02:57;4.30;;;1.20;;
1759;SDS011;877;46.266;20.062;2024-03-29T11:05:28;3.70;;;1.63;;
1759;SDS011;877;46.266;20.062;2024-03-29T11:07:56;7.93;;;1.73;;
1759;SDS011;877;46.266;20.062;2024-03-29T11:10:25;6.40;;;1.60;;
1759;SDS011;877;46.266;20.062;2024-03-29T11:12:58;4.73;;;1.37;;
1759;SDS011;877;46.266;20.062;2024-03-29T11:15:29;4.73;;;1.47;;
1759;SDS011;877;46.266;20.062;2024-03-29T11:17:56;6.83;;;1.50;;
1759;SDS011;877;46.266;20.062;2024-03-29T11:20:28;5.47;;;1.57;;
1759;SDS011;877;46.266;20.062;2024-03-29T11:23:21;5.67;;;2.20;;
1759;SDS011;877;46.266;20.062;2024-03-29T11:25:51;6.90;;;2.30;;
1759;SDS011;877;46.266;20.062;2024-03-29T11:28:25;5.47;;;2.00;;
1759;SDS011;877;46.266;20.062;2024-03-29T11:30:56;5.90;;;2.20;;
1759;SDS011;877;46.266;20.062;2024-03-29T11:33:44;6.87;;;2.13;;
1759;SDS011;877;46.266;20.062;2024-03-29T11:36:22;7.90;;;2.40;;
1759;SDS011;877;46.266;20.062;2024-03-29T11:38:50;9.00;;;1.73;;
1759;SDS011;877;46.266;20.062;2024-03-29T11:41:17;8.47;;;2.33;;
1759;SDS011;877;46.266;20.062;2024-03-29T11:43:43;13.53;;;2.73;;
1759;SDS011;877;46.266;20.062;2024-03-29T11:46:10;7.17;;;1.93;;
1759;SDS011;877;46.266;20.062;2024-03-29T11:48:37;7.00;;;2.03;;
1759;SDS011;877;46.266;20.062;2024-03-29T11:51:04;7.37;;;2.13;;
1759;SDS011;877;46.266;20.062;2024-03-29T11:53:31;5.90;;;2.40;;
1759;SDS011;877;46.266;20.062;2024-03-29T11:56:01;8.10;;;1.80;;
1759;SDS011;877;46.266;20.062;2024-03-29T11:58:28;4.30;;;1.70;;
1759;SDS011;877;46.266;20.062;2024-03-29T12:00:56;5.33;;;1.67;;
1759;SDS011;877;46.266;20.062;2024-03-29T12:03:23;4.80;;;1.47;;
1759;SDS011;877;46.266;20.062;2024-03-29T12:05:50;6.93;;;1.63;;
1759;SDS011;877;46.266;20.062;2024-03-29T12:08:19;6.50;;;2.40;;
1759;SDS011;877;46.266;20.062;2024-03-29T12:10:46;7.20;;;1.90;;
1759;SDS011;877;46.266;20.062;2024-03-29T12:13:13;3.77;;;1.53;;
1759;SDS011;877;46.266;20.062;2024-03-29T12:15:40;6.37;;;2.00;;
1759;SDS011;877;46.266;20.062;2024-03-29T12:18:06;8.10;;;1.67;;
1759;SDS011;877;46.266;20.062;2024-03-29T12:20:32;9.00;;;2.10;;
1759;SDS011;877;46.266;20.062;2024-03-29T12:23:01;7.10;;;1.87;;
1759;SDS011;877;46.266;20.062;2024-03-29T12:25:28;5.50;;;1.67;;
1759;SDS011;877;46.266;20.062;2024-03-29T12:27:54;7.83;;;1.90;;
1759;SDS011;877;46.266;20.062;2024-03-29T12:30:21;9.80;;;2.30;;
1759;SDS011;877;46.266;20.062;2024-03-29T12:32:48;9.33;;;2.10;;
1759;SDS011;877;46.266;20.062;2024-03-29T12:35:15;5.77;;;1.67;;
1759;SDS011;877;46.266;20.062;2024-03-29T12:37:48;7.97;;;2.13;;
1759;SDS011;877;46.266;20.062;2024-03-29T12:40:18;6.83;;;2.13;;
1759;SDS011;877;46.266;20.062;2024-03-29T12:42:48;9.80;;;2.37;;
1759;SDS011;877;46.266;20.062;2024-03-29T12:45:14;10.70;;;2.47;;
1759;SDS011;877;46.266;20.062;2024-03-29T12:47:40;7.83;;;2.00;;
1759;SDS011;877;46.266;20.062;2024-03-29T12:50:07;6.07;;;1.63;;
1759;SDS011;877;46.266;20.062;2024-03-29T12:52:37;4.87;;;1.70;;
1759;SDS011;877;46.266;20.062;2024-03-29T12:55:03;6.00;;;1.60;;
1759;SDS011;877;46.266;20.062;2024-03-29T12:57:31;5.13;;;1.93;;
1759;SDS011;877;46.266;20.062;2024-03-29T12:59:57;5.47;;;1.53;;
1759;SDS011;877;46.266;20.062;2024-03-29T13:02:23;6.10;;;1.43;;
1759;SDS011;877;46.266;20.062;2024-03-29T13:04:49;8.67;;;2.10;;
1759;SDS011;877;46.266;20.062;2024-03-29T13:07:16;8.27;;;1.83;;
1759;SDS011;877;46.266;20.062;2024-03-29T13:09:42;7.50;;;2.37;;
1759;SDS011;877;46.266;20.062;2024-03-29T13:12:08;7.73;;;2.13;;
1759;SDS011;877;46.266;20.062;2024-03-29T13:14:34;8.30;;;2.10;;
1759;SDS011;877;46.266;20.062;2024-03-29T13:17:00;5.43;;;1.63;;
1759;SDS011;877;46.266;20.062;2024-03-29T13:19:27;8.80;;;2.20;;
1759;SDS011;877;46.266;20.062;2024-03-29T13:21:54;7.70;;;2.70;;
1759;SDS011;877;46.266;20.062;2024-03-29T13:24:20;9.17;;;2.47;;
1759;SDS011;877;46.266;20.062;2024-03-29T13:26:46;7.00;;;2.13;;
1759;SDS011;877;46.266;20.062;2024-03-29T13:29:12;7.00;;;2.27;;
1759;SDS011;877;46.266;20.062;2024-03-29T13:31:41;6.70;;;2.70;;
1759;SDS011;877;46.266;20.062;2024-03-29T13:34:07;6.37;;;2.27;;
1759;SDS011;877;46.266;20.062;2024-03-29T13:36:39;7.97;;;2.27;;
1759;SDS011;877;46.266;20.062;2024-03-29T13:39:07;6.47;;;2.07;;
1759;SDS011;877;46.266;20.062;2024-03-29T13:41:34;5.10;;;2.07;;
1759;SDS011;877;46.266;20.062;2024-03-29T13:44:00;7.83;;;2.30;;
1759;SDS011;877;46.266;20.062;2024-03-29T13:46:34;7.60;;;2.00;;
1759;SDS011;877;46.266;20.062;2024-03-29T13:49:18;8.13;;;2.40;;
1759;SDS011;877;46.266;20.062;2024-03-29T13:51:47;7.93;;;1.80;;
1759;SDS011;877;46.266;20.062;2024-03-29T13:54:14;9.37;;;2.30;;
1759;SDS011;877;46.266;20.062;2024-03-29T13:56:40;7.47;;;2.60;;
1759;SDS011;877;46.266;20.062;2024-03-29T13:59:06;7.00;;;1.93;;
1759;SDS011;877;46.266;20.062;2024-03-29T14:01:32;9.77;;;2.90;;
1759;SDS011;877;46.266;20.062;2024-03-29T14:03:58;5.33;;;2.23;;
1759;SDS011;877;46.266;20.062;2024-03-29T14:06:24;6.67;;;2.37;;
1759;SDS011;877;46.266;20.062;2024-03-29T14:08:50;7.50;;;2.40;;
1759;SDS011;877;46.266;20.062;2024-03-29T14:11:16;9.77;;;1.77;;
1759;SDS011;877;46.266;20.062;2024-03-29T14:13:43;6.97;;;2.10;;
1759;SDS011;877;46.266;20.062;2024-03-29T14:16:14;10.87;;;1.70;;
1759;SDS011;877;46.266;20.062;2024-03-29T14:18:40;8.87;;;2.23;;
1759;SDS011;877;46.266;20.062;2024-03-29T14:21:06;8.33;;;2.10;;
1759;SDS011;877;46.266;20.062;2024-03-29T14:23:32;10.10;;;2.20;;
1759;SDS011;877;46.266;20.062;2024-03-29T14:25:58;8.57;;;2.53;;
1759;SDS011;877;46.266;20.062;2024-03-29T14:28:24;9.87;;;2.07;;
1759;SDS011;877;46.266;20.062;2024-03-29T14:30:50;8.50;;;2.87;;
1759;SDS011;877;46.266;20.062;2024-03-29T14:33:16;9.80;;;2.13;;
1759;SDS011;877;46.266;20.062;2024-03-29T14:35:43;9.23;;;2.07;;
1759;SDS011;877;46.266;20.062;2024-03-29T14:38:11;9.43;;;1.93;;
1759;SDS011;877;46.266;20.062;2024-03-29T14:40:39;7.17;;;2.13;;
1759;SDS011;877;46.266;20.062;2024-03-29T14:43:05;7.53;;;2.30;;
1759;SDS011;877;46.266;20.062;2024-03-29T14:45:31;7.47;;;2.43;;
1759;SDS011;877;46.266;20.062;2024-03-29T14:47:57;7.13;;;1.93;;
1759;SDS011;877;46.266;20.062;2024-03-29T14:50:23;9.00;;;2.27;;
1759;SDS011;877;46.266;20.062;2024-03-29T14:52:49;9.60;;;1.70;;
1759;SDS011;877;46.266;20.062;2024-03-29T14:55:15;9.03;;;2.20;;
1759;SDS011;877;46.266;20.062;2024-03-29T14:57:41;7.83;;;2.17;;
1759;SDS011;877;46.266;20.062;2024-03-29T15:00:08;10.40;;;2.40;;
1759;SDS011;877;46.266;20.062;2024-03-29T15:02:34;8.70;;;2.17;;
1759;SDS011;877;46.266;20.062;2024-03-29T15:05:00;9.53;;;2.80;;
1759;SDS011;877;46.266;20.062;2024-03-29T15:07:31;7.03;;;2.33;;
1759;SDS011;877;46.266;20.062;2024-03-29T15:09:58;13.33;;;2.83;;
1759;SDS011;877;46.266;20.062;2024-03-29T15:12:25;8.90;;;2.93;;
1759;SDS011;877;46.266;20.062;2024-03-29T15:14:51;8.97;;;3.50;;
1759;SDS011;877;46.266;20.062;2024-03-29T15:17:17;7.67;;;2.50;;
1759;SDS011;877;46.266;20.062;2024-03-29T15:19:45;5.70;;;2.73;;